createdAt,value
2019-03-06T00:01:00.384Z,99.90
2019-03-06T00:03:29.870Z,99.90
2019-03-06T00:05:59.380Z,99.90
2019-03-06T00:08:28.867Z,99.90
2019-03-06T00:10:58.353Z,99.90
2019-03-06T00:13:27.853Z,99.90
2019-03-06T00:15:57.345Z,99.90
2019-03-06T00:18:26.834Z,99.90
2019-03-06T00:20:56.382Z,99.90
2019-03-06T00:23:25.873Z,99.90
2019-03-06T00:25:55.593Z,99.90
2019-03-06T00:28:25.094Z,99.90
2019-03-06T00:30:54.595Z,99.90
2019-03-06T00:33:24.101Z,99.90
2019-03-06T00:35:55.181Z,99.90
2019-03-06T00:38:25.038Z,99.90
2019-03-06T00:40:56.086Z,99.90
2019-03-06T00:43:25.584Z,99.90
2019-03-06T00:45:55.109Z,99.90
2019-03-06T00:48:24.599Z,99.90
2019-03-06T00:50:54.100Z,99.90
2019-03-06T00:53:23.576Z,99.90
2019-03-06T00:55:53.064Z,99.90
2019-03-06T00:58:22.574Z,99.90
2019-03-06T01:00:52.046Z,99.90
2019-03-06T01:03:21.541Z,99.90
2019-03-06T01:05:51.297Z,99.90
2019-03-06T01:08:20.871Z,99.90
2019-03-06T01:10:50.354Z,99.90
2019-03-06T01:13:20.250Z,99.90
2019-03-06T01:15:49.734Z,99.90
2019-03-06T01:18:19.245Z,99.90
2019-03-06T01:20:48.759Z,99.90
2019-03-06T01:23:18.284Z,99.90
2019-03-06T01:25:47.761Z,99.90
2019-03-06T01:28:17.273Z,99.90
2019-03-06T01:30:46.756Z,99.90
2019-03-06T01:33:34.375Z,99.90
2019-03-06T01:36:05.442Z,99.90
2019-03-06T01:38:51.301Z,99.90
2019-03-06T01:41:22.352Z,99.90
2019-03-06T01:43:59.160Z,99.90
2019-03-06T01:46:28.755Z,99.90
2019-03-06T01:48:58.220Z,99.90
2019-03-06T01:51:27.721Z,99.90
2019-03-06T01:53:57.197Z,99.90
2019-03-06T01:56:26.678Z,99.90
2019-03-06T01:58:56.182Z,99.90
2019-03-06T02:01:25.671Z,99.90
2019-03-06T02:03:55.147Z,99.90
2019-03-06T02:06:26.193Z,99.90
2019-03-06T02:08:55.682Z,99.90
2019-03-06T02:11:25.158Z,99.90
2019-03-06T02:13:54.760Z,99.90
2019-03-06T02:16:24.246Z,99.90
2019-03-06T02:18:53.730Z,99.90
2019-03-06T02:21:23.236Z,99.90
2019-03-06T02:23:52.715Z,99.90
2019-03-06T02:26:22.185Z,99.90
2019-03-06T02:28:51.975Z,99.90
2019-03-06T02:31:21.448Z,99.90
2019-03-06T02:33:50.965Z,99.90
2019-03-06T02:36:20.438Z,99.90
2019-03-06T02:38:49.916Z,99.90
2019-03-06T02:41:19.708Z,99.90
2019-03-06T02:43:49.200Z,99.90
2019-03-06T02:46:18.699Z,99.90
2019-03-06T02:48:48.169Z,99.90
2019-03-06T02:51:17.651Z,99.90
2019-03-06T02:53:47.525Z,99.90
2019-03-06T02:56:17.122Z,99.90
2019-03-06T02:58:50.882Z,99.90
2019-03-06T03:01:27.826Z,99.90
2019-03-06T03:04:13.425Z,99.90
2019-03-06T03:06:59.520Z,99.90
2019-03-06T03:09:29.003Z,99.90
2019-03-06T03:11:58.481Z,99.90
2019-03-06T03:14:27.982Z,99.90
2019-03-06T03:16:57.525Z,99.90
2019-03-06T03:19:27.019Z,99.90
2019-03-06T03:21:56.498Z,99.90
2019-03-06T03:24:25.968Z,99.90
2019-03-06T03:26:55.478Z,99.90
2019-03-06T03:29:24.954Z,99.90
2019-03-06T03:31:54.441Z,99.90
2019-03-06T03:34:23.967Z,99.90
2019-03-06T03:36:53.855Z,99.90
2019-03-06T03:39:23.332Z,99.90
2019-03-06T03:41:52.857Z,99.90
2019-03-06T03:44:22.358Z,99.90
2019-03-06T03:46:51.885Z,99.90
2019-03-06T03:49:21.397Z,99.90
2019-03-06T03:51:50.875Z,99.90
2019-03-06T03:54:20.374Z,99.90
2019-03-06T03:56:50.010Z,99.90
2019-03-06T03:59:19.481Z,99.90
2019-03-06T04:01:49.160Z,99.90
2019-03-06T04:04:18.606Z,99.90
2019-03-06T04:06:48.151Z,99.90
2019-03-06T04:09:17.732Z,99.90
2019-03-06T04:11:47.254Z,99.90
2019-03-06T04:14:16.909Z,99.90
2019-03-06T04:16:46.391Z,99.90
2019-03-06T04:19:15.914Z,99.90
2019-03-06T04:21:45.487Z,99.90
2019-03-06T04:24:14.977Z,99.90
2019-03-06T04:26:44.647Z,99.90
2019-03-06T04:29:14.129Z,99.90
2019-03-06T04:31:43.634Z,99.90
2019-03-06T04:34:13.110Z,99.90
2019-03-06T04:36:42.646Z,99.90
2019-03-06T04:39:12.301Z,99.90
2019-03-06T04:41:41.704Z,99.90
2019-03-06T04:44:11.209Z,99.90
2019-03-06T04:46:40.686Z,99.90
2019-03-06T04:49:10.176Z,99.90
2019-03-06T04:51:39.682Z,99.90
2019-03-06T04:54:09.162Z,99.90
2019-03-06T04:56:58.026Z,99.90
2019-03-06T04:59:27.886Z,99.90
2019-03-06T05:01:57.368Z,99.90
2019-03-06T05:04:26.873Z,99.90
2019-03-06T05:06:56.466Z,99.90
2019-03-06T05:09:26.026Z,99.90
2019-03-06T05:11:55.901Z,99.90
2019-03-06T05:14:25.385Z,99.90
2019-03-06T05:17:05.565Z,99.90
2019-03-06T05:19:35.158Z,99.90
2019-03-06T05:22:05.129Z,99.90
2019-03-06T05:24:34.627Z,99.90
2019-03-06T05:27:04.098Z,99.90
2019-03-06T05:29:33.574Z,99.90
2019-03-06T05:32:33.334Z,99.90
2019-03-06T05:35:19.263Z,99.90
2019-03-06T05:38:05.768Z,99.90
2019-03-06T05:40:35.274Z,99.90
2019-03-06T05:43:04.782Z,99.90
2019-03-06T05:45:34.287Z,99.90
2019-03-06T05:48:04.055Z,99.90
2019-03-06T05:50:33.541Z,99.90
2019-03-06T05:53:03.059Z,99.90
2019-03-06T05:55:32.536Z,99.90
2019-03-06T05:58:02.019Z,99.90
2019-03-06T06:00:31.955Z,99.90
2019-03-06T06:03:01.439Z,99.90
2019-03-06T06:05:30.923Z,99.90
2019-03-06T06:08:00.421Z,99.90
2019-03-06T06:10:29.902Z,99.90
2019-03-06T06:12:59.371Z,99.90
2019-03-06T06:15:28.895Z,99.90
2019-03-06T06:17:58.413Z,99.90
2019-03-06T06:20:27.901Z,99.90
2019-03-06T06:23:04.799Z,99.90
2019-03-06T06:25:35.581Z,99.90
2019-03-06T06:28:05.076Z,99.90
2019-03-06T06:30:34.747Z,99.90
2019-03-06T06:33:04.312Z,99.90
2019-03-06T06:35:33.807Z,99.90
2019-03-06T06:38:03.287Z,99.90
2019-03-06T06:40:32.781Z,99.90
2019-03-06T06:43:02.279Z,99.90
2019-03-06T06:45:31.763Z,99.90
2019-03-06T06:48:16.820Z,99.90
2019-03-06T06:51:05.555Z,99.90
2019-03-06T06:53:51.146Z,99.90
2019-03-06T06:56:47.688Z,99.90
2019-03-06T06:59:30.978Z,99.90
2019-03-06T07:02:12.345Z,99.90
2019-03-06T07:05:16.465Z,99.90
2019-03-06T07:08:03.645Z,99.90
2019-03-06T07:10:52.544Z,99.90
2019-03-06T07:13:29.796Z,99.90
2019-03-06T07:16:19.124Z,99.90
2019-03-06T07:19:06.338Z,99.90
2019-03-06T07:21:46.398Z,99.90
2019-03-06T07:24:20.385Z,99.90
2019-03-06T07:27:00.546Z,99.90
2019-03-06T07:29:31.611Z,99.90
2019-03-06T07:32:02.663Z,99.90
2019-03-06T07:34:42.852Z,99.90
2019-03-06T07:37:13.939Z,99.90
2019-03-06T07:39:45.223Z,99.90
2019-03-06T07:42:32.666Z,99.90
2019-03-06T07:45:45.306Z,99.90
2019-03-06T07:48:16.490Z,99.90
2019-03-06T07:50:50.640Z,99.90
2019-03-06T07:53:52.811Z,99.90
2019-03-06T07:56:24.076Z,99.90
2019-03-06T07:58:59.237Z,99.90
2019-03-06T08:01:32.321Z,99.90
2019-03-06T08:04:12.249Z,99.90
2019-03-06T08:06:43.612Z,99.90
2019-03-06T08:09:20.820Z,99.90
2019-03-06T08:12:03.902Z,99.90
2019-03-06T08:14:47.304Z,99.90
2019-03-06T08:17:24.332Z,99.90
2019-03-06T08:19:55.411Z,99.90
2019-03-06T08:22:35.096Z,99.90
2019-03-06T08:25:23.600Z,99.90
2019-03-06T08:27:53.191Z,99.90
2019-03-06T08:30:23.875Z,99.90
2019-03-06T08:32:53.396Z,99.90
2019-03-06T08:35:22.872Z,99.90
2019-03-06T08:37:52.367Z,99.90
2019-03-06T08:40:21.878Z,99.90
2019-03-06T08:42:51.368Z,99.90
2019-03-06T08:45:25.417Z,99.90
2019-03-06T08:48:08.766Z,99.90
2019-03-06T08:50:39.826Z,99.90
2019-03-06T08:53:10.874Z,99.90
2019-03-06T08:56:00.310Z,99.90
2019-03-06T08:58:31.342Z,99.90
2019-03-06T09:01:40.016Z,99.90
2019-03-06T09:04:14.363Z,99.90
2019-03-06T09:06:48.178Z,99.90
2019-03-06T09:09:25.314Z,99.90
2019-03-06T09:12:12.664Z,99.90
2019-03-06T09:14:43.734Z,99.90
2019-03-06T09:17:17.546Z,99.90
2019-03-06T09:19:51.289Z,99.90
2019-03-06T09:22:22.374Z,99.90
2019-03-06T09:24:53.421Z,99.90
2019-03-06T09:27:27.260Z,99.90
2019-03-06T09:30:16.224Z,99.90
2019-03-06T09:33:01.438Z,99.90
2019-03-06T09:35:35.446Z,99.90
2019-03-06T09:38:12.801Z,99.90
2019-03-06T09:40:46.808Z,99.90
2019-03-06T09:43:23.748Z,99.90
2019-03-06T09:46:06.914Z,99.90
2019-03-06T09:48:38.005Z,99.90
2019-03-06T09:51:25.338Z,99.90
2019-03-06T09:54:02.452Z,99.90
2019-03-06T09:56:33.505Z,99.90
2019-03-06T09:59:04.934Z,99.90
2019-03-06T10:01:36.033Z,99.90
2019-03-06T10:04:09.925Z,99.90
2019-03-06T10:06:52.134Z,99.90
2019-03-06T10:09:23.182Z,99.90
2019-03-06T10:12:00.050Z,99.90
2019-03-06T10:14:33.793Z,99.90
2019-03-06T10:17:07.632Z,99.90
2019-03-06T10:19:38.686Z,99.90
2019-03-06T10:22:08.165Z,99.90
2019-03-06T10:24:37.683Z,99.90
2019-03-06T10:27:07.164Z,99.10
2019-03-06T10:29:36.930Z,97.60
2019-03-06T10:32:06.507Z,96.40
2019-03-06T10:34:36.402Z,96.90
2019-03-06T10:39:35.499Z,96.10
2019-03-06T10:42:05.057Z,95.10
2019-03-06T10:44:34.550Z,95.20
2019-03-06T10:47:04.234Z,94.40
2019-03-06T10:49:33.904Z,94.10
2019-03-06T10:52:03.490Z,92.80
2019-03-06T10:54:33.430Z,92.90
2019-03-06T10:57:03.010Z,91.90
2019-03-06T10:59:32.985Z,91.20
2019-03-06T11:02:02.558Z,88.90
2019-03-06T11:04:33.903Z,87.50
2019-03-06T11:07:03.433Z,86.80
2019-03-06T11:09:33.310Z,84.20
2019-03-06T11:12:02.869Z,83.10
2019-03-06T11:14:32.824Z,80.80
2019-03-06T11:17:02.348Z,78.70
2019-03-06T11:19:32.222Z,77.40
2019-03-06T11:22:01.715Z,76.10
2019-03-06T11:24:31.317Z,76.10
2019-03-06T11:27:00.797Z,75.50
2019-03-06T11:29:30.296Z,74.70
2019-03-06T11:31:59.970Z,74.00
2019-03-06T11:34:29.580Z,71.10
2019-03-06T11:36:59.130Z,69.80
2019-03-06T11:39:28.723Z,68.90
2019-03-06T11:41:58.218Z,68.20
2019-03-06T11:44:27.707Z,68.50
2019-03-06T11:46:57.220Z,65.80
2019-03-06T11:49:26.723Z,60.30
2019-03-06T11:51:56.406Z,58.70
2019-03-06T11:54:25.933Z,56.00
2019-03-06T11:56:55.423Z,53.10
2019-03-06T11:59:24.981Z,49.40
2019-03-06T12:01:54.489Z,46.30
2019-03-06T12:04:23.986Z,44.60
2019-03-06T12:06:55.408Z,43.30
2019-03-06T12:09:28.752Z,41.80
2019-03-06T12:11:58.157Z,40.20
2019-03-06T12:14:27.669Z,38.50
2019-03-06T12:16:57.189Z,36.00
2019-03-06T12:19:26.735Z,33.90
2019-03-06T12:21:56.431Z,32.80
2019-03-06T12:24:25.925Z,32.60
2019-03-06T12:26:55.424Z,34.30
2019-03-06T12:29:24.874Z,38.10
2019-03-06T12:31:54.354Z,41.70
2019-03-06T12:34:23.838Z,40.00
2019-03-06T12:36:53.343Z,37.50
2019-03-06T12:39:22.831Z,36.10
2019-03-06T12:41:52.332Z,34.50
2019-03-06T12:44:21.841Z,35.00
2019-03-06T12:46:51.343Z,35.10
2019-03-06T12:49:20.845Z,35.30
2019-03-06T12:51:54.361Z,34.40
2019-03-06T12:54:21.680Z,33.60
2019-03-06T12:56:51.166Z,34.00
2019-03-06T12:59:20.691Z,32.40
2019-03-06T13:01:50.240Z,32.50
2019-03-06T13:04:20.738Z,32.20
2019-03-06T13:06:50.357Z,31.50
2019-03-06T13:09:19.914Z,33.10
2019-03-06T13:11:49.502Z,34.30
2019-03-06T13:14:19.015Z,34.50
2019-03-06T13:16:48.575Z,34.10
2019-03-06T13:19:18.068Z,34.30
2019-03-06T13:21:47.582Z,35.10
2019-03-06T13:24:17.103Z,35.70
2019-03-06T13:26:46.645Z,37.40
2019-03-06T13:29:16.344Z,39.20
2019-03-06T13:31:45.772Z,39.50
2019-03-06T13:34:16.851Z,39.40
2019-03-06T13:36:46.518Z,40.30
2019-03-06T13:39:17.163Z,40.30
2019-03-06T13:41:46.794Z,40.00
2019-03-06T13:44:16.321Z,38.40
2019-03-06T13:46:45.883Z,36.90
2019-03-06T13:49:15.367Z,36.50
2019-03-06T13:51:44.885Z,35.80
2019-03-06T13:54:15.378Z,35.90
2019-03-06T13:56:44.895Z,35.20
2019-03-06T13:59:14.422Z,34.60
2019-03-06T14:01:43.903Z,35.40
2019-03-06T14:04:13.601Z,35.70
2019-03-06T14:06:43.093Z,35.60
2019-03-06T14:09:13.081Z,35.90
2019-03-06T14:11:42.746Z,36.30
2019-03-06T14:14:12.237Z,36.50
2019-03-06T14:16:41.763Z,36.50
2019-03-06T14:19:11.331Z,36.50
2019-03-06T14:21:40.828Z,36.00
2019-03-06T14:24:10.352Z,36.30
2019-03-06T14:26:40.032Z,35.30
2019-03-06T14:29:09.517Z,36.00
2019-03-06T14:31:39.125Z,37.20
2019-03-06T14:34:08.610Z,38.40
2019-03-06T14:36:38.142Z,39.90
2019-03-06T14:39:24.256Z,41.30
2019-03-06T14:41:53.775Z,42.20
2019-03-06T14:44:23.468Z,44.60
2019-03-06T14:47:03.548Z,45.10
2019-03-06T14:49:33.455Z,45.50
2019-03-06T14:52:07.288Z,45.90
2019-03-06T14:54:34.454Z,45.70
2019-03-06T14:57:03.947Z,46.10
2019-03-06T14:59:33.443Z,46.90
2019-03-06T15:02:02.952Z,47.90
2019-03-06T15:04:32.466Z,48.90
2019-03-06T15:07:01.958Z,49.70
2019-03-06T15:09:31.400Z,50.70
2019-03-06T15:12:00.888Z,51.90
2019-03-06T15:14:36.344Z,52.70
2019-03-06T15:17:01.624Z,53.50
2019-03-06T15:19:31.190Z,54.80
2019-03-06T15:22:02.213Z,55.60
2019-03-06T15:24:40.705Z,56.20
2019-03-06T15:27:03.210Z,56.90
2019-03-06T15:29:32.858Z,57.30
2019-03-06T15:32:02.378Z,57.70
2019-03-06T15:34:31.952Z,57.90
2019-03-06T15:37:01.538Z,58.50
2019-03-06T15:39:31.951Z,59.00
2019-03-06T15:42:03.032Z,59.40
2019-03-06T15:44:32.910Z,59.50
2019-03-06T15:47:02.515Z,60.00
2019-03-06T15:49:32.180Z,60.50
2019-03-06T15:52:01.665Z,60.30
2019-03-06T15:54:31.177Z,60.30
2019-03-06T15:57:00.670Z,60.20
2019-03-06T15:59:30.163Z,60.80
2019-03-06T16:01:59.673Z,60.50
2019-03-06T16:04:29.189Z,61.50
2019-03-06T16:06:58.691Z,62.20
2019-03-06T16:09:28.215Z,62.90
2019-03-06T16:11:57.907Z,63.00
2019-03-06T16:14:27.470Z,63.60
2019-03-06T16:16:57.097Z,64.20
2019-03-06T16:19:26.738Z,64.60
2019-03-06T16:21:56.218Z,66.00
2019-03-06T16:24:26.363Z,66.20
2019-03-06T16:26:55.913Z,66.90
2019-03-06T16:29:25.436Z,67.20
2019-03-06T16:31:54.974Z,68.20
2019-03-06T16:34:24.541Z,68.10
2019-03-06T16:36:54.032Z,68.60
2019-03-06T16:39:24.136Z,68.20
2019-03-06T16:41:53.740Z,67.40
2019-03-06T16:44:23.573Z,67.90
2019-03-06T16:46:53.095Z,68.60
2019-03-06T16:49:22.584Z,68.90
2019-03-06T16:51:52.118Z,68.00
2019-03-06T16:54:21.856Z,68.50
2019-03-06T16:56:51.342Z,68.50
2019-03-06T16:59:20.910Z,68.90
2019-03-06T17:01:50.419Z,69.00
2019-03-06T17:04:19.909Z,69.20
2019-03-06T17:06:49.586Z,69.50
2019-03-06T17:09:19.491Z,69.40
2019-03-06T17:11:48.975Z,68.90
2019-03-06T17:14:18.477Z,69.20
2019-03-06T17:16:47.998Z,69.30
2019-03-06T17:19:17.481Z,69.10
2019-03-06T17:21:47.137Z,69.30
2019-03-06T17:24:16.828Z,69.70
2019-03-06T17:26:46.319Z,70.20
2019-03-06T17:29:15.794Z,70.60
2019-03-06T17:31:45.301Z,71.10
2019-03-06T17:34:15.141Z,71.30
2019-03-06T17:36:44.660Z,72.10
2019-03-06T17:39:14.451Z,72.50
2019-03-06T17:41:43.976Z,73.00
2019-03-06T17:44:13.490Z,73.30
2019-03-06T17:46:42.970Z,73.90
2019-03-06T17:49:12.652Z,74.10
2019-03-06T17:51:42.202Z,74.70
2019-03-06T17:54:11.673Z,74.50
2019-03-06T17:56:41.148Z,74.80
2019-03-06T17:59:10.683Z,75.40
2019-03-06T18:01:40.358Z,75.70
2019-03-06T18:04:11.487Z,76.10
2019-03-06T18:06:40.995Z,76.40
2019-03-06T18:09:29.914Z,77.00
2019-03-06T18:11:59.511Z,76.30
2019-03-06T18:14:29.018Z,76.90
2019-03-06T18:16:58.612Z,76.70
2019-03-06T18:19:28.197Z,77.60
2019-03-06T18:21:57.777Z,77.60
2019-03-06T18:24:27.728Z,78.30
2019-03-06T18:26:57.791Z,78.70
2019-03-06T18:29:27.601Z,79.40
2019-03-06T18:31:57.283Z,80.20
2019-03-06T18:34:26.902Z,80.60
2019-03-06T18:36:56.421Z,81.70
2019-03-06T18:39:26.383Z,82.50
2019-03-06T18:41:57.286Z,82.90
2019-03-06T18:44:27.202Z,82.60
2019-03-06T18:46:57.043Z,83.10
2019-03-06T18:49:26.662Z,82.70
2019-03-06T18:51:56.592Z,83.30
2019-03-06T18:54:26.540Z,82.50
2019-03-06T18:56:56.529Z,83.00
2019-03-06T18:59:26.133Z,83.20
2019-03-06T19:01:55.840Z,82.80
2019-03-06T19:04:25.572Z,83.00
2019-03-06T19:06:55.123Z,83.00
2019-03-06T19:09:25.048Z,82.50
2019-03-06T19:11:54.540Z,82.20
2019-03-06T19:14:24.032Z,81.50
2019-03-06T19:16:53.625Z,81.20
2019-03-06T19:19:23.201Z,80.40
2019-03-06T19:21:52.724Z,80.50
2019-03-06T19:24:22.497Z,80.50
2019-03-06T19:26:51.971Z,80.40
2019-03-06T19:29:21.509Z,80.60
2019-03-06T19:31:51.077Z,80.90
2019-03-06T19:34:20.643Z,80.70
2019-03-06T19:36:50.166Z,80.80
2019-03-06T19:39:19.925Z,80.50
2019-03-06T19:41:49.413Z,81.00
2019-03-06T19:44:18.942Z,81.80
2019-03-06T19:46:48.451Z,80.90
2019-03-06T19:49:18.026Z,80.70
2019-03-06T19:51:51.478Z,80.80
2019-03-06T19:54:18.743Z,80.90
2019-03-06T19:56:48.226Z,81.00
2019-03-06T19:59:17.747Z,81.60
2019-03-06T20:01:47.301Z,80.90
2019-03-06T20:04:16.786Z,80.50
2019-03-06T20:06:46.368Z,80.30
2019-03-06T20:09:27.040Z,79.80
2019-03-06T20:11:56.543Z,79.10
2019-03-06T20:14:26.027Z,79.20
2019-03-06T20:16:55.587Z,78.90
2019-03-06T20:19:25.113Z,78.50
2019-03-06T20:21:54.659Z,79.00
2019-03-06T20:24:24.139Z,79.20
2019-03-06T20:26:53.653Z,79.20
2019-03-06T20:29:23.148Z,78.90
2019-03-06T20:31:52.640Z,78.00
2019-03-06T20:34:22.155Z,77.90
2019-03-06T20:36:51.823Z,77.30
2019-03-06T20:39:21.385Z,76.90
2019-03-06T20:41:50.991Z,76.70
2019-03-06T20:44:20.537Z,78.60
2019-03-06T20:46:50.015Z,77.60
2019-03-06T20:49:19.522Z,77.10
2019-03-06T20:51:49.302Z,76.50
2019-03-06T20:54:18.876Z,75.40
2019-03-06T20:56:48.397Z,75.70
2019-03-06T20:59:17.869Z,75.40
2019-03-06T21:01:47.368Z,75.00
2019-03-06T21:04:16.955Z,75.10
2019-03-06T21:06:46.714Z,76.50
2019-03-06T21:09:17.140Z,74.70
2019-03-06T21:11:46.993Z,74.40
2019-03-06T21:14:16.690Z,74.20
2019-03-06T21:16:46.189Z,74.40
2019-03-06T21:19:15.708Z,74.50
2019-03-06T21:21:45.259Z,74.80
2019-03-06T21:24:14.779Z,74.40
2019-03-06T21:26:44.560Z,74.20
2019-03-06T21:29:14.131Z,74.30
2019-03-06T21:31:43.637Z,74.20
2019-03-06T21:34:13.171Z,74.10
2019-03-06T21:36:42.728Z,74.50
2019-03-06T21:39:24.147Z,73.50
2019-03-06T21:41:53.704Z,73.30
2019-03-06T21:44:23.187Z,73.20
2019-03-06T21:46:52.799Z,72.50
2019-03-06T21:49:22.355Z,72.30
2019-03-06T21:51:51.968Z,71.90
2019-03-06T21:54:21.703Z,71.10
2019-03-06T21:56:51.264Z,70.80
2019-03-06T21:59:20.836Z,71.00
2019-03-06T22:01:50.511Z,71.10
2019-03-06T22:04:20.070Z,69.90
2019-03-06T22:06:49.664Z,70.10
2019-03-06T22:09:19.447Z,70.10
2019-03-06T22:11:48.988Z,69.00
2019-03-06T22:14:18.469Z,69.00
2019-03-06T22:16:47.993Z,69.00
2019-03-06T22:19:17.482Z,69.30
2019-03-06T22:21:47.038Z,68.60
2019-03-06T22:24:16.655Z,68.60
2019-03-06T22:26:46.147Z,68.40
2019-03-06T22:29:15.700Z,68.20
2019-03-06T22:31:45.207Z,68.30
2019-03-06T22:34:14.902Z,68.10
2019-03-06T22:36:44.388Z,67.80
2019-03-06T22:39:14.032Z,68.10
2019-03-06T22:41:43.598Z,68.50
2019-03-06T22:44:13.106Z,67.60
2019-03-06T22:46:42.748Z,67.70
2019-03-06T22:49:12.249Z,67.90
2019-03-06T22:51:42.106Z,67.60
2019-03-06T22:54:11.607Z,68.00
2019-03-06T22:56:41.095Z,66.70
2019-03-06T22:59:10.655Z,67.10
2019-03-06T23:01:40.264Z,65.70
2019-03-06T23:04:09.745Z,66.30
2019-03-06T23:06:39.222Z,66.50
2019-03-06T23:09:09.637Z,66.60
2019-03-06T23:11:39.124Z,67.20
2019-03-06T23:14:08.616Z,65.30
2019-03-06T23:16:38.169Z,65.10
2019-03-06T23:19:07.930Z,64.70
2019-03-06T23:21:37.477Z,63.80
2019-03-06T23:24:07.019Z,63.50
2019-03-06T23:26:42.664Z,62.80
2019-03-06T23:29:07.722Z,63.10
2019-03-06T23:31:37.237Z,63.20
2019-03-06T23:34:06.733Z,63.10
2019-03-06T23:36:36.209Z,62.50
2019-03-06T23:39:07.116Z,62.20
2019-03-06T23:41:36.593Z,62.20
2019-03-06T23:44:06.090Z,62.20
2019-03-06T23:46:35.794Z,62.70
2019-03-06T23:49:05.276Z,63.40
2019-03-06T23:51:35.058Z,63.60
2019-03-06T23:54:04.580Z,63.40
2019-03-06T23:56:34.072Z,63.30
2019-03-06T23:59:03.936Z,63.80
